首页
METAR-TAF:

METAR-TAF

机场 :

North Myrtle Beach, 南卡罗来纳州, 美国

纬度: 33-48-42N, 经度: 078-43-26W, 海拔: 10米

当前天气观测

该预报发布于20分钟前的13:53 UTC
风速11节,风向
温度 21°C
湿度 88%
气压 1013 hPa
能見度: 16.1公里
少量云层高于2900英尺

METAR: KCRE 241353Z 19011KT 10SM FEW029 21/19 A2991 RMK AO1 LTG DSNT E SLP130 T02060189

时间: 10:13 (14:13 UTC)

预报

该预报发布于28分钟前的13:45 UTC
预报有效从24日的 14点(UTC)到 25日的 12点(UTC)
风速8节,风向南转南东
能見度: 10公里
散云层高于2700英尺
散云层高于3000英尺
多云层高于4000英尺
从 24日的 1600点(UTC)
风速13节,风向,有时为21节阵风
能見度: 10公里
散云层高于900英尺
散云层高于5000英尺
从 24日的 2300点(UTC)
风速10节,风向南转西南
能見度: 10公里
天空无云

TAF: KCRE 241345Z 2414/2512 16008KT P6SM SCT027 SCT030 BKN040 FM241600 19013G21KT P6SM SCT009 SCT050 FM242300 21010KT P6SM SKC

超过4000个机场的气象观测和天气预报(METAR&TAF报告)。

可查询的气象台以黄色和红色小点在地图上表示。

将鼠标移到小点上方,可查看气象台名称。

然后点击查看天气观测和预报。

如需切换地图:点击带黑十字的绿色按钮放大地图;点击带横线的绿色按钮缩小地图;或者点击绿色箭头查看邻近地区的地图。


METAR-TAF: